createdAt,value
2017-10-09T00:00:47.102Z,8.20
2017-10-09T00:01:47.808Z,8.19
2017-10-09T00:02:48.516Z,8.13
2017-10-09T00:03:49.224Z,8.20
2017-10-09T00:04:49.931Z,8.18
2017-10-09T00:05:50.640Z,8.20
2017-10-09T00:06:51.347Z,8.15
2017-10-09T00:07:52.056Z,8.18
2017-10-09T00:08:52.762Z,8.09
2017-10-09T00:09:53.469Z,8.09
2017-10-09T00:10:54.179Z,8.12
2017-10-09T00:11:54.887Z,8.10
2017-10-09T00:12:55.610Z,8.10
2017-10-09T00:13:56.318Z,8.13
2017-10-09T00:14:57.028Z,8.12
2017-10-09T00:15:57.742Z,8.16
2017-10-09T00:16:58.448Z,8.08
2017-10-09T00:17:59.153Z,8.10
2017-10-09T00:18:59.859Z,8.09
2017-10-09T00:20:00.569Z,8.15
2017-10-09T00:21:01.277Z,7.97
2017-10-09T00:22:01.985Z,8.00
2017-10-09T00:23:02.693Z,7.95
2017-10-09T00:24:03.413Z,8.00
2017-10-09T00:25:04.132Z,8.01
2017-10-09T00:26:04.837Z,8.03
2017-10-09T00:27:05.546Z,8.10
2017-10-09T00:28:06.253Z,8.06
2017-10-09T00:29:06.976Z,8.08
2017-10-09T00:30:07.700Z,8.08
2017-10-09T00:31:08.407Z,8.05
2017-10-09T00:32:09.128Z,7.97
2017-10-09T00:33:09.834Z,7.97
2017-10-09T00:34:10.543Z,7.97
2017-10-09T00:35:11.253Z,8.01
2017-10-09T00:36:11.962Z,7.95
2017-10-09T00:37:12.669Z,8.00
2017-10-09T00:38:13.376Z,7.93
2017-10-09T00:39:14.083Z,7.98
2017-10-09T00:40:14.810Z,8.05
2017-10-09T00:41:15.516Z,7.93
2017-10-09T00:42:16.234Z,7.95
2017-10-09T00:43:16.937Z,7.98
2017-10-09T00:44:17.651Z,7.90
2017-10-09T00:45:18.353Z,7.94
2017-10-09T00:46:19.062Z,7.93
2017-10-09T00:47:19.770Z,7.93
2017-10-09T00:48:20.478Z,7.95
2017-10-09T00:49:21.188Z,8.00
2017-10-09T00:50:21.894Z,7.97
2017-10-09T00:51:22.620Z,7.93
2017-10-09T00:52:23.311Z,7.94
2017-10-09T00:53:24.031Z,7.90
2017-10-09T00:54:24.739Z,7.95
2017-10-09T00:55:25.446Z,7.90
2017-10-09T00:56:26.155Z,7.90
2017-10-09T00:57:26.863Z,7.88
2017-10-09T00:58:27.573Z,7.88
2017-10-09T00:59:28.293Z,7.93
2017-10-09T01:00:29.001Z,7.87
2017-10-09T01:01:29.709Z,7.88
2017-10-09T01:02:30.416Z,7.90
2017-10-09T01:03:31.124Z,7.90
2017-10-09T01:04:31.831Z,7.97
2017-10-09T01:05:32.538Z,7.93
2017-10-09T01:06:33.247Z,7.98
2017-10-09T01:07:33.956Z,7.97
2017-10-09T01:08:34.663Z,7.98
2017-10-09T01:09:35.371Z,8.00
2017-10-09T01:10:36.080Z,7.97
2017-10-09T01:11:36.787Z,8.05
2017-10-09T01:12:37.496Z,8.00
2017-10-09T01:13:38.205Z,8.12
2017-10-09T01:14:38.911Z,8.03
2017-10-09T01:15:39.619Z,8.09
2017-10-09T01:16:40.327Z,8.13
2017-10-09T01:17:41.034Z,8.12
2017-10-09T01:18:41.758Z,8.12
2017-10-09T01:19:42.466Z,8.19
2017-10-09T01:20:43.177Z,8.18
2017-10-09T01:21:43.883Z,8.13
2017-10-09T01:22:44.592Z,8.16
2017-10-09T01:23:45.303Z,8.20
2017-10-09T01:24:46.010Z,8.24
2017-10-09T01:25:46.717Z,8.20
2017-10-09T01:26:47.426Z,8.27
2017-10-09T01:27:48.147Z,8.30
2017-10-09T01:28:48.854Z,8.28
2017-10-09T01:29:49.564Z,8.33
2017-10-09T01:30:50.270Z,8.33
2017-10-09T01:31:50.992Z,8.27
2017-10-09T01:32:51.702Z,8.34
2017-10-09T01:33:52.408Z,8.30
2017-10-09T01:34:53.116Z,8.34
2017-10-09T01:35:53.824Z,8.34
2017-10-09T01:36:54.532Z,8.31
2017-10-09T01:37:55.241Z,8.34
2017-10-09T01:38:55.948Z,8.36
2017-10-09T01:39:56.674Z,8.31
2017-10-09T01:40:57.384Z,8.44
2017-10-09T01:41:58.088Z,8.46
2017-10-09T01:42:58.796Z,8.41
2017-10-09T01:43:59.504Z,8.38
2017-10-09T01:45:00.217Z,8.44
2017-10-09T01:46:00.920Z,8.46
2017-10-09T01:47:01.628Z,8.48
2017-10-09T01:48:02.337Z,8.49
2017-10-09T01:49:03.044Z,8.48
2017-10-09T01:50:03.766Z,8.45
2017-10-09T01:51:04.472Z,8.48
2017-10-09T01:52:05.179Z,8.48
2017-10-09T01:53:05.899Z,8.45
2017-10-09T01:54:06.609Z,8.44
2017-10-09T01:55:07.316Z,8.44
2017-10-09T01:56:08.025Z,8.51
2017-10-09T01:57:08.748Z,8.48
2017-10-09T01:58:09.458Z,8.44
2017-10-09T01:59:10.168Z,8.34
2017-10-09T02:00:10.879Z,8.42
2017-10-09T02:01:11.599Z,8.44
2017-10-09T02:02:12.306Z,8.36
2017-10-09T02:03:13.012Z,8.31
2017-10-09T02:04:13.733Z,8.38
2017-10-09T02:05:14.458Z,8.31
2017-10-09T02:06:15.171Z,8.38
2017-10-09T02:07:15.877Z,8.33
2017-10-09T02:08:16.585Z,8.31
2017-10-09T02:09:17.307Z,8.19
2017-10-09T02:10:18.017Z,8.24
2017-10-09T02:11:18.727Z,8.26
2017-10-09T02:12:19.435Z,8.23
2017-10-09T02:13:20.143Z,8.13
2017-10-09T02:14:20.861Z,8.18
2017-10-09T02:15:21.584Z,8.10
2017-10-09T02:16:22.294Z,8.10
2017-10-09T02:17:23.004Z,8.18
2017-10-09T02:18:23.712Z,8.15
2017-10-09T02:19:24.421Z,8.12
2017-10-09T02:20:25.128Z,8.12
2017-10-09T02:21:25.837Z,8.00
2017-10-09T02:22:26.545Z,8.01
2017-10-09T02:23:27.253Z,8.09
2017-10-09T02:24:27.959Z,8.00
2017-10-09T02:25:28.681Z,8.06
2017-10-09T02:26:29.388Z,8.06
2017-10-09T02:27:30.096Z,8.05
2017-10-09T02:28:30.816Z,8.10
2017-10-09T02:29:31.524Z,8.06
2017-10-09T02:30:32.252Z,8.03
2017-10-09T02:31:32.958Z,8.10
2017-10-09T02:32:33.666Z,7.98
2017-10-09T02:33:34.387Z,8.03
2017-10-09T02:34:35.108Z,7.93
2017-10-09T02:35:35.814Z,8.06
2017-10-09T02:36:36.521Z,7.98
2017-10-09T02:37:37.228Z,7.93
2017-10-09T02:38:37.935Z,7.95
2017-10-09T02:39:38.656Z,7.95
2017-10-09T02:40:39.365Z,7.97
2017-10-09T02:41:40.088Z,7.94
2017-10-09T02:42:40.791Z,7.93
2017-10-09T02:43:41.513Z,8.03
2017-10-09T02:44:42.221Z,7.93
2017-10-09T02:45:42.930Z,7.94
2017-10-09T02:46:43.639Z,7.97
2017-10-09T02:47:44.346Z,8.00
2017-10-09T02:48:45.057Z,7.98
2017-10-09T02:49:45.763Z,7.97
2017-10-09T02:50:46.486Z,7.95
2017-10-09T02:51:47.210Z,7.97
2017-10-09T02:52:47.916Z,7.97
2017-10-09T02:53:48.623Z,8.00
2017-10-09T02:54:49.345Z,7.97
2017-10-09T02:55:50.053Z,8.05
2017-10-09T02:56:50.760Z,7.93
2017-10-09T02:57:51.466Z,7.97
2017-10-09T02:58:52.174Z,7.93
2017-10-09T02:59:52.897Z,7.88
2017-10-09T03:00:53.607Z,7.88
2017-10-09T03:01:54.316Z,7.88
2017-10-09T03:02:55.026Z,7.88
2017-10-09T03:03:55.734Z,7.91
2017-10-09T03:04:56.443Z,7.90
2017-10-09T03:05:57.150Z,7.90
2017-10-09T03:06:57.859Z,7.85
2017-10-09T03:07:58.579Z,7.88
2017-10-09T03:08:59.286Z,7.91
2017-10-09T03:09:59.994Z,7.87
2017-10-09T03:11:00.701Z,7.91
2017-10-09T03:12:01.419Z,7.87
2017-10-09T03:13:02.128Z,7.79
2017-10-09T03:14:02.836Z,7.79
2017-10-09T03:15:03.560Z,7.72
2017-10-09T03:16:04.269Z,7.75
2017-10-09T03:17:04.991Z,7.77
2017-10-09T03:18:05.698Z,7.66
2017-10-09T03:19:06.416Z,7.76
2017-10-09T03:20:07.140Z,7.73
2017-10-09T03:21:07.848Z,7.66
2017-10-09T03:22:08.570Z,7.63
2017-10-09T03:23:09.275Z,7.66
2017-10-09T03:24:09.983Z,7.56
2017-10-09T03:25:10.692Z,7.63
2017-10-09T03:26:11.399Z,7.57
2017-10-09T03:27:12.108Z,7.58
2017-10-09T03:28:12.816Z,7.51
2017-10-09T03:29:13.524Z,7.50
2017-10-09T03:30:14.230Z,7.51
2017-10-09T03:31:14.938Z,7.50
2017-10-09T03:32:15.641Z,7.50
2017-10-09T03:33:16.349Z,7.35
2017-10-09T03:34:17.055Z,7.47
2017-10-09T03:35:17.761Z,7.47
2017-10-09T03:36:18.484Z,7.47
2017-10-09T03:37:19.212Z,7.43
2017-10-09T03:38:19.921Z,7.42
2017-10-09T03:39:20.631Z,7.38
2017-10-09T03:40:21.342Z,7.36
2017-10-09T03:41:22.047Z,7.35
2017-10-09T03:42:22.768Z,7.36
2017-10-09T03:43:23.475Z,7.33
2017-10-09T03:44:24.184Z,7.36
2017-10-09T03:45:24.900Z,7.32
2017-10-09T03:46:25.622Z,7.33
2017-10-09T03:47:26.331Z,7.32
2017-10-09T03:48:27.051Z,7.33
2017-10-09T03:49:27.757Z,7.24
2017-10-09T03:50:28.463Z,7.33
2017-10-09T03:51:29.170Z,7.21
2017-10-09T03:52:29.876Z,7.25
2017-10-09T03:53:30.585Z,7.20
2017-10-09T03:54:31.293Z,7.17
2017-10-09T03:55:32.012Z,7.25
2017-10-09T03:56:32.720Z,7.21
2017-10-09T03:57:33.441Z,7.15
2017-10-09T03:58:34.148Z,7.18
2017-10-09T03:59:34.855Z,7.25
2017-10-09T04:00:35.564Z,7.17
2017-10-09T04:01:36.271Z,7.20
2017-10-09T04:02:36.993Z,7.21
2017-10-09T04:03:37.702Z,7.18
2017-10-09T04:04:38.409Z,7.17
2017-10-09T04:05:39.129Z,7.18
2017-10-09T04:06:39.839Z,7.21
2017-10-09T04:07:40.547Z,7.23
2017-10-09T04:08:41.254Z,7.18
2017-10-09T04:09:41.978Z,7.18
2017-10-09T04:10:42.681Z,7.18
2017-10-09T04:11:43.389Z,7.18
2017-10-09T04:12:44.097Z,7.21
2017-10-09T04:13:44.804Z,7.20
2017-10-09T04:14:45.512Z,7.23
2017-10-09T04:15:46.220Z,7.18
2017-10-09T04:16:46.926Z,7.20
2017-10-09T04:17:47.648Z,7.31
2017-10-09T04:18:48.355Z,7.25
2017-10-09T04:19:49.063Z,7.32
2017-10-09T04:20:49.772Z,7.36
2017-10-09T04:21:50.479Z,7.32
2017-10-09T04:22:51.188Z,7.38
2017-10-09T04:23:51.896Z,7.31
2017-10-09T04:24:52.603Z,7.29
2017-10-09T04:25:53.311Z,7.28
2017-10-09T04:26:54.019Z,7.28
2017-10-09T04:27:54.738Z,7.35
2017-10-09T04:28:55.445Z,7.39
2017-10-09T04:29:56.153Z,7.33
2017-10-09T04:30:56.861Z,7.42
2017-10-09T04:31:57.580Z,7.36
2017-10-09T04:32:58.289Z,7.39
2017-10-09T04:33:59.011Z,7.38
2017-10-09T04:34:59.718Z,7.35
2017-10-09T04:36:00.426Z,7.36
2017-10-09T04:37:01.133Z,7.40
2017-10-09T04:38:01.855Z,7.42
2017-10-09T04:39:02.575Z,7.43
2017-10-09T04:40:03.285Z,7.45
2017-10-09T04:41:03.988Z,7.45
2017-10-09T04:42:04.695Z,7.42
2017-10-09T04:43:05.402Z,7.43
2017-10-09T04:44:06.113Z,7.43
2017-10-09T04:45:06.833Z,7.38
2017-10-09T04:46:07.553Z,7.57
2017-10-09T04:47:08.260Z,7.48
2017-10-09T04:48:08.967Z,7.45
2017-10-09T04:49:09.688Z,7.48
2017-10-09T04:50:10.400Z,7.45
2017-10-09T04:51:11.101Z,7.53
2017-10-09T04:52:11.809Z,7.45
2017-10-09T04:53:12.530Z,7.50
2017-10-09T04:54:13.241Z,7.54
2017-10-09T04:55:13.959Z,7.39
2017-10-09T04:56:14.666Z,7.40
2017-10-09T04:57:15.373Z,7.54
2017-10-09T04:58:16.081Z,7.40
2017-10-09T04:59:16.799Z,7.40
2017-10-09T05:00:17.507Z,7.45
2017-10-09T05:01:18.217Z,7.48
2017-10-09T05:02:18.925Z,7.48
2017-10-09T05:03:19.633Z,7.42
2017-10-09T05:04:20.354Z,7.40
2017-10-09T05:05:21.059Z,7.47
2017-10-09T05:06:21.765Z,7.39
2017-10-09T05:07:22.475Z,7.39
2017-10-09T05:08:23.183Z,7.38
2017-10-09T05:09:23.891Z,7.36
2017-10-09T05:10:24.597Z,7.39
2017-10-09T05:11:25.319Z,7.40
2017-10-09T05:12:26.030Z,7.35
2017-10-09T05:13:26.737Z,7.39
2017-10-09T05:14:27.460Z,7.45
2017-10-09T05:15:28.167Z,7.39
2017-10-09T05:16:28.887Z,7.42
2017-10-09T05:17:29.594Z,7.39
2017-10-09T05:18:30.317Z,7.45
2017-10-09T05:19:31.024Z,7.38
2017-10-09T05:20:31.732Z,7.42
2017-10-09T05:21:32.440Z,7.39
2017-10-09T05:22:33.148Z,7.51
2017-10-09T05:23:33.855Z,7.54
2017-10-09T05:24:34.563Z,7.39
2017-10-09T05:25:35.271Z,7.39
2017-10-09T05:26:35.979Z,7.51
2017-10-09T05:27:36.687Z,7.45
2017-10-09T05:28:37.397Z,7.53
2017-10-09T05:29:38.118Z,7.45
2017-10-09T05:30:38.842Z,7.47
2017-10-09T05:31:39.565Z,7.54
2017-10-09T05:32:40.283Z,7.48
2017-10-09T05:33:41.006Z,7.53
2017-10-09T05:34:41.727Z,7.54
2017-10-09T05:35:42.436Z,7.50
2017-10-09T05:36:43.144Z,7.54
2017-10-09T05:37:43.853Z,7.50
2017-10-09T05:38:44.565Z,7.56
2017-10-09T05:39:45.287Z,7.54
2017-10-09T05:40:46.002Z,7.50
2017-10-09T05:41:46.720Z,7.48
2017-10-09T05:42:47.442Z,7.48
2017-10-09T05:43:48.151Z,7.38
2017-10-09T05:44:48.861Z,7.48
2017-10-09T05:45:49.574Z,7.50
2017-10-09T05:46:50.285Z,7.53
2017-10-09T05:47:50.996Z,7.53
2017-10-09T05:48:51.708Z,7.48
2017-10-09T05:49:52.420Z,7.51
2017-10-09T05:50:53.144Z,7.51
2017-10-09T05:51:53.854Z,7.53
2017-10-09T05:52:54.566Z,7.50
2017-10-09T05:53:55.277Z,7.51
2017-10-09T05:54:56.003Z,7.56
2017-10-09T05:55:56.714Z,7.53
2017-10-09T05:56:57.427Z,7.57
2017-10-09T05:57:58.139Z,7.56
2017-10-09T05:58:58.851Z,7.57
2017-10-09T05:59:59.576Z,7.58
2017-10-09T06:01:00.288Z,7.53
2017-10-09T06:02:01.012Z,7.69
2017-10-09T06:03:01.724Z,7.63
2017-10-09T06:04:02.434Z,7.75
2017-10-09T06:05:03.163Z,7.72
2017-10-09T06:06:03.869Z,7.76
2017-10-09T06:07:04.594Z,7.75
2017-10-09T06:08:05.304Z,7.72
2017-10-09T06:09:06.031Z,7.73
2017-10-09T06:10:06.757Z,7.75
2017-10-09T06:11:07.470Z,7.80
2017-10-09T06:12:08.183Z,7.76
2017-10-09T06:13:08.897Z,7.83
2017-10-09T06:14:09.623Z,7.83
2017-10-09T06:15:10.338Z,7.91
2017-10-09T06:16:11.051Z,7.87
2017-10-09T06:17:11.777Z,7.97
2017-10-09T06:18:12.490Z,7.95
2017-10-09T06:19:13.202Z,7.98
2017-10-09T06:20:13.913Z,7.97
2017-10-09T06:21:14.627Z,8.06
2017-10-09T06:22:15.342Z,8.05
2017-10-09T06:23:16.055Z,8.24
2017-10-09T06:24:16.782Z,8.23
2017-10-09T06:25:17.508Z,8.31
2017-10-09T06:26:18.237Z,8.53
2017-10-09T06:27:18.962Z,8.61
2017-10-09T06:28:19.678Z,8.70
2017-10-09T06:29:20.402Z,8.78
2017-10-09T06:30:21.116Z,8.73
2017-10-09T06:31:22.129Z,8.70
2017-10-09T06:32:22.844Z,8.76
2017-10-09T06:33:23.558Z,8.82
2017-10-09T06:34:24.271Z,8.81
2017-10-09T06:35:25.000Z,8.74
2017-10-09T06:36:25.725Z,8.82
2017-10-09T06:37:26.439Z,8.81
2017-10-09T06:38:27.152Z,8.73
2017-10-09T06:39:27.868Z,8.70
2017-10-09T06:40:28.582Z,8.61
2017-10-09T06:41:29.295Z,8.60
2017-10-09T06:42:30.009Z,8.56
2017-10-09T06:43:30.722Z,8.56
2017-10-09T06:44:31.437Z,8.60
2017-10-09T06:45:32.150Z,8.52
2017-10-09T06:46:32.872Z,8.48
2017-10-09T06:47:33.577Z,8.53
2017-10-09T06:48:34.304Z,8.51
2017-10-09T06:49:35.019Z,8.46
2017-10-09T06:50:35.747Z,8.53
2017-10-09T06:51:36.461Z,8.60
2017-10-09T06:52:37.174Z,8.55
2017-10-09T06:53:37.887Z,8.55
2017-10-09T06:54:38.600Z,8.58
2017-10-09T06:55:39.313Z,8.60
2017-10-09T06:56:40.038Z,8.58
2017-10-09T06:57:40.752Z,8.58
2017-10-09T06:58:41.466Z,8.64
2017-10-09T06:59:42.178Z,8.66
2017-10-09T07:00:42.893Z,8.70
2017-10-09T07:01:43.620Z,8.64
2017-10-09T07:02:44.337Z,8.64
2017-10-09T07:03:45.069Z,8.76
2017-10-09T07:04:45.781Z,8.67
2017-10-09T07:05:46.494Z,8.69
2017-10-09T07:06:47.209Z,8.73
2017-10-09T07:07:47.925Z,8.76
2017-10-09T07:08:48.639Z,8.79
2017-10-09T07:09:49.354Z,8.78
2017-10-09T07:10:50.085Z,8.85
2017-10-09T07:11:50.801Z,8.97
2017-10-09T07:12:51.518Z,9.00
2017-10-09T07:13:52.234Z,9.03
2017-10-09T07:14:52.949Z,9.08
2017-10-09T07:15:53.664Z,9.10
2017-10-09T07:16:54.381Z,9.13
2017-10-09T07:17:55.099Z,9.11
2017-10-09T07:18:55.830Z,9.14
2017-10-09T07:19:56.546Z,9.13
2017-10-09T07:20:57.261Z,9.18
2017-10-09T07:21:57.977Z,9.06
2017-10-09T07:22:58.693Z,9.13
2017-10-09T07:23:59.408Z,9.18
2017-10-09T07:25:00.122Z,9.11
2017-10-09T07:26:00.837Z,9.18
2017-10-09T07:27:01.552Z,9.06
2017-10-09T07:28:02.269Z,9.13
2017-10-09T07:29:02.986Z,9.22
2017-10-09T07:30:03.716Z,9.31
2017-10-09T07:31:04.430Z,9.36
2017-10-09T07:32:05.146Z,9.44
2017-10-09T07:33:05.863Z,9.40
2017-10-09T07:34:06.581Z,9.61
2017-10-09T07:35:07.294Z,9.56
2017-10-09T07:36:08.009Z,9.61
2017-10-09T07:37:08.725Z,9.65
2017-10-09T07:38:09.444Z,9.59
2017-10-09T07:39:10.173Z,9.62
2017-10-09T07:40:10.886Z,9.66
2017-10-09T07:41:11.602Z,9.64
2017-10-09T07:42:12.318Z,9.82
2017-10-09T07:43:13.037Z,9.80
2017-10-09T07:44:13.751Z,9.91
2017-10-09T07:45:14.469Z,9.97
2017-10-09T07:46:15.198Z,10.10
2017-10-09T07:47:15.915Z,10.05
2017-10-09T07:48:16.633Z,10.25
2017-10-09T07:49:17.349Z,10.20
2017-10-09T07:50:18.069Z,10.34
2017-10-09T07:51:18.786Z,10.23
2017-10-09T07:52:19.503Z,10.22
2017-10-09T07:53:20.221Z,10.15
2017-10-09T07:54:20.938Z,10.19
2017-10-09T07:55:21.654Z,10.17
2017-10-09T07:56:22.371Z,10.26
2017-10-09T07:57:23.089Z,10.26
2017-10-09T07:58:23.819Z,10.28
2017-10-09T07:59:24.550Z,10.23
2017-10-09T08:00:25.270Z,10.20
2017-10-09T08:01:25.988Z,10.30
2017-10-09T08:02:26.706Z,10.28
2017-10-09T08:03:27.423Z,10.34
2017-10-09T08:04:28.143Z,10.40
2017-10-09T08:05:28.875Z,10.40
2017-10-09T08:06:29.594Z,10.42
2017-10-09T08:07:30.328Z,10.53
2017-10-09T08:08:31.046Z,10.63
2017-10-09T08:09:31.770Z,10.78
2017-10-09T08:10:32.483Z,10.89
2017-10-09T08:11:33.203Z,10.94
2017-10-09T08:12:33.930Z,11.11
2017-10-09T08:13:34.654Z,11.07
2017-10-09T08:14:35.374Z,10.96
2017-10-09T08:15:36.097Z,11.07
2017-10-09T08:16:36.812Z,11.14
2017-10-09T08:17:37.531Z,11.07
2017-10-09T08:18:38.249Z,11.12
2017-10-09T08:19:38.981Z,11.04
2017-10-09T08:20:39.700Z,10.90
2017-10-09T08:21:40.435Z,11.04
2017-10-09T08:22:41.148Z,10.89
2017-10-09T08:23:41.879Z,10.92
2017-10-09T08:24:42.598Z,10.89
2017-10-09T08:25:43.331Z,11.00
2017-10-09T08:26:44.064Z,11.07
2017-10-09T08:27:44.782Z,11.10
2017-10-09T08:28:45.500Z,11.11
2017-10-09T08:29:46.220Z,11.12
2017-10-09T08:30:46.940Z,11.17
2017-10-09T08:31:47.673Z,11.14
2017-10-09T08:32:48.390Z,11.17
2017-10-09T08:33:49.109Z,11.12
2017-10-09T08:34:49.829Z,11.14
2017-10-09T08:35:50.545Z,10.94
2017-10-09T08:36:51.274Z,10.90
2017-10-09T08:37:52.007Z,10.96
2017-10-09T08:38:52.724Z,10.92
2017-10-09T08:39:53.454Z,10.92
2017-10-09T08:40:54.171Z,10.84
2017-10-09T08:41:54.893Z,10.86
2017-10-09T08:42:55.607Z,10.93
2017-10-09T08:43:56.324Z,10.97
2017-10-09T08:44:57.043Z,10.93
2017-10-09T08:45:57.761Z,10.94
2017-10-09T08:46:58.477Z,10.93
2017-10-09T08:47:59.208Z,10.89
2017-10-09T08:48:59.938Z,10.93
2017-10-09T08:50:00.656Z,10.90
2017-10-09T08:51:01.375Z,11.11
2017-10-09T08:52:02.093Z,11.10
2017-10-09T08:53:02.810Z,11.17
2017-10-09T08:54:03.530Z,11.23
2017-10-09T08:55:04.245Z,11.30
2017-10-09T08:56:04.978Z,11.32
2017-10-09T08:57:05.709Z,11.37
2017-10-09T08:58:06.427Z,11.30
2017-10-09T08:59:07.144Z,11.27
2017-10-09T09:00:07.863Z,11.27
2017-10-09T09:01:08.582Z,11.15
2017-10-09T09:02:09.299Z,11.23
2017-10-09T09:03:10.018Z,11.30
2017-10-09T09:04:10.736Z,11.17
2017-10-09T09:05:11.464Z,11.15
2017-10-09T09:06:12.181Z,11.25
2017-10-09T09:07:12.899Z,11.27
2017-10-09T09:08:13.632Z,11.15
2017-10-09T09:09:14.350Z,10.99
2017-10-09T09:10:15.067Z,11.11
2017-10-09T09:11:15.784Z,11.08
2017-10-09T09:12:16.507Z,11.14
2017-10-09T09:13:17.237Z,11.23
2017-10-09T09:14:17.956Z,11.17
2017-10-09T09:15:18.676Z,11.29
2017-10-09T09:16:19.389Z,11.33
2017-10-09T09:17:20.122Z,11.40
2017-10-09T09:18:20.841Z,11.40
2017-10-09T09:19:21.566Z,11.51
2017-10-09T09:20:22.279Z,11.50
2017-10-09T09:21:23.015Z,11.57
2017-10-09T09:22:23.741Z,11.68
2017-10-09T09:23:24.458Z,11.54
2017-10-09T09:24:25.180Z,11.59
2017-10-09T09:25:25.899Z,11.54
2017-10-09T09:26:26.617Z,11.52
2017-10-09T09:27:27.350Z,11.54
2017-10-09T09:28:28.071Z,11.59
2017-10-09T09:29:28.803Z,11.69
2017-10-09T09:30:29.522Z,11.65
2017-10-09T09:31:30.257Z,11.75
2017-10-09T09:32:30.975Z,11.70
2017-10-09T09:33:31.695Z,11.68
2017-10-09T09:34:32.414Z,11.66
2017-10-09T09:35:33.136Z,11.80
2017-10-09T09:36:33.857Z,11.86
2017-10-09T09:37:34.574Z,12.00
2017-10-09T09:38:35.295Z,12.04
2017-10-09T09:39:36.016Z,12.17
2017-10-09T09:40:36.752Z,12.15
2017-10-09T09:41:37.489Z,12.27
2017-10-09T09:42:38.209Z,12.36
2017-10-09T09:43:38.927Z,12.43
2017-10-09T09:44:39.647Z,12.45
2017-10-09T09:45:40.383Z,12.75
2017-10-09T09:46:41.107Z,12.85
2017-10-09T09:47:41.844Z,13.01
2017-10-09T09:48:42.570Z,13.63
2017-10-09T09:49:43.293Z,14.00
2017-10-09T09:50:44.017Z,13.75
2017-10-09T09:51:44.738Z,13.99
2017-10-09T09:52:45.464Z,14.11
2017-10-09T09:53:46.187Z,14.12
2017-10-09T09:54:46.913Z,14.07
2017-10-09T09:55:47.636Z,13.90
2017-10-09T09:56:48.361Z,13.60
2017-10-09T09:57:49.085Z,13.54
2017-10-09T09:58:49.822Z,13.86
2017-10-09T09:59:50.545Z,14.10
2017-10-09T10:00:51.279Z,14.07
2017-10-09T10:01:52.002Z,13.68
2017-10-09T10:02:52.727Z,13.11
2017-10-09T10:03:53.449Z,12.98
2017-10-09T10:04:54.183Z,13.04
2017-10-09T10:05:54.905Z,13.13
2017-10-09T10:06:55.641Z,12.94
2017-10-09T10:07:56.377Z,12.90
2017-10-09T10:08:57.099Z,12.67
2017-10-09T10:09:57.821Z,12.49
2017-10-09T10:10:58.543Z,12.47
2017-10-09T10:11:59.266Z,12.50
2017-10-09T10:12:59.988Z,12.25
2017-10-09T10:14:00.713Z,12.25
2017-10-09T10:15:01.433Z,12.24
2017-10-09T10:16:02.155Z,12.43
2017-10-09T10:17:02.877Z,12.36
2017-10-09T10:18:03.610Z,12.45
2017-10-09T10:19:04.344Z,12.25
2017-10-09T10:20:05.063Z,12.28
2017-10-09T10:21:05.784Z,12.28
2017-10-09T10:22:06.509Z,12.46
2017-10-09T10:23:07.229Z,12.50
2017-10-09T10:24:07.962Z,12.62
2017-10-09T10:25:08.683Z,12.54
2017-10-09T10:26:09.417Z,12.80
2017-10-09T10:27:10.152Z,12.57
2017-10-09T10:28:10.885Z,12.49
2017-10-09T10:29:11.620Z,12.49
2017-10-09T10:30:12.340Z,12.42
2017-10-09T10:31:13.060Z,12.58
2017-10-09T10:32:13.780Z,12.47
2017-10-09T10:33:14.502Z,12.47
2017-10-09T10:34:15.225Z,12.35
2017-10-09T10:35:15.958Z,12.39
2017-10-09T10:36:16.678Z,12.43
2017-10-09T10:37:17.401Z,12.47
2017-10-09T10:38:18.120Z,12.60
2017-10-09T10:39:18.840Z,12.70
2017-10-09T10:40:19.559Z,12.67
2017-10-09T10:41:20.280Z,12.72
2017-10-09T10:42:21.002Z,12.72
2017-10-09T10:43:21.724Z,12.64
2017-10-09T10:44:22.457Z,12.78
2017-10-09T10:45:23.181Z,12.85
2017-10-09T10:46:23.914Z,12.91
2017-10-09T10:47:24.634Z,12.97
2017-10-09T10:48:25.354Z,13.04
2017-10-09T10:49:26.075Z,13.12
2017-10-09T10:50:26.796Z,13.31
2017-10-09T10:51:27.517Z,13.30
2017-10-09T10:52:28.236Z,13.20
2017-10-09T10:53:28.959Z,13.04
2017-10-09T10:54:29.677Z,13.01
2017-10-09T10:55:30.398Z,13.13
2017-10-09T10:56:31.119Z,13.16
2017-10-09T10:57:31.843Z,12.91
2017-10-09T10:58:32.563Z,13.04
2017-10-09T10:59:33.286Z,13.18
2017-10-09T11:00:34.009Z,13.25
2017-10-09T11:01:34.730Z,13.44
2017-10-09T11:02:35.465Z,13.62
2017-10-09T11:03:36.187Z,13.79
2017-10-09T11:04:36.911Z,13.95
2017-10-09T11:05:37.631Z,14.04
2017-10-09T11:06:38.351Z,13.93
2017-10-09T11:07:39.075Z,14.03
2017-10-09T11:08:39.798Z,13.87
2017-10-09T11:09:40.533Z,13.79
2017-10-09T11:10:41.258Z,13.93
2017-10-09T11:11:41.979Z,13.95
2017-10-09T11:12:42.719Z,13.79
2017-10-09T11:13:43.439Z,13.72
2017-10-09T11:14:44.162Z,13.89
2017-10-09T11:15:44.883Z,13.78
2017-10-09T11:16:45.608Z,13.86
2017-10-09T11:17:46.329Z,13.63
2017-10-09T11:18:47.053Z,13.59
2017-10-09T11:19:47.780Z,13.63
2017-10-09T11:20:48.497Z,13.49
2017-10-09T11:21:49.220Z,13.46
2017-10-09T11:22:49.943Z,13.50
2017-10-09T11:23:50.664Z,13.50
2017-10-09T11:24:51.386Z,13.63
2017-10-09T11:25:52.110Z,13.52
2017-10-09T11:26:52.832Z,13.52
2017-10-09T11:27:53.553Z,13.70
2017-10-09T11:28:54.276Z,13.81
2017-10-09T11:29:54.997Z,13.70
2017-10-09T11:30:55.720Z,13.46
2017-10-09T11:31:56.456Z,13.53
2017-10-09T11:32:57.179Z,13.56
2017-10-09T11:33:57.901Z,13.60
2017-10-09T11:34:58.638Z,13.49
2017-10-09T11:35:59.361Z,13.62
2017-10-09T11:37:00.089Z,13.70
2017-10-09T11:38:00.805Z,13.74
2017-10-09T11:39:01.530Z,13.86
2017-10-09T11:40:02.255Z,13.97
2017-10-09T11:41:02.976Z,13.93
2017-10-09T11:42:03.697Z,13.83
2017-10-09T11:43:04.422Z,13.74
2017-10-09T11:44:05.146Z,13.86
2017-10-09T11:45:05.869Z,13.90
2017-10-09T11:46:06.591Z,14.03
2017-10-09T11:47:07.327Z,14.00
2017-10-09T11:48:08.050Z,13.96
2017-10-09T11:49:08.774Z,14.04
2017-10-09T11:50:09.498Z,14.03
2017-10-09T11:51:10.221Z,14.04
2017-10-09T11:52:10.943Z,13.96
2017-10-09T11:53:11.668Z,13.87
2017-10-09T11:54:12.391Z,13.89
2017-10-09T11:55:13.117Z,13.99
2017-10-09T11:56:13.852Z,14.07
2017-10-09T11:57:14.575Z,14.07
2017-10-09T11:58:15.301Z,14.17
2017-10-09T11:59:16.023Z,14.26
2017-10-09T12:00:16.747Z,14.30
2017-10-09T12:01:17.471Z,14.23
2017-10-09T12:02:18.194Z,14.18
2017-10-09T12:03:18.918Z,14.10
2017-10-09T12:04:19.641Z,13.92
2017-10-09T12:05:20.376Z,14.00
2017-10-09T12:06:21.100Z,14.05
2017-10-09T12:07:21.824Z,13.95
2017-10-09T12:08:22.563Z,14.04
2017-10-09T12:09:23.284Z,14.03
2017-10-09T12:10:24.007Z,14.05
2017-10-09T12:11:24.730Z,14.14
2017-10-09T12:12:25.452Z,14.07
2017-10-09T12:13:26.188Z,14.14
2017-10-09T12:14:26.911Z,14.10
2017-10-09T12:15:27.636Z,14.03
2017-10-09T12:16:28.356Z,14.00
2017-10-09T12:17:29.091Z,14.08
2017-10-09T12:18:29.814Z,14.00
2017-10-09T12:19:30.539Z,13.99
2017-10-09T12:20:31.274Z,14.05
2017-10-09T12:21:31.997Z,14.11
2017-10-09T12:22:32.736Z,13.95
2017-10-09T12:23:33.467Z,13.99
2017-10-09T12:24:34.188Z,14.05
2017-10-09T12:25:34.914Z,14.00
2017-10-09T12:26:35.645Z,13.87
2017-10-09T12:27:36.366Z,13.93
2017-10-09T12:28:37.089Z,13.86
2017-10-09T12:29:37.810Z,13.90
2017-10-09T12:30:38.544Z,13.78
2017-10-09T12:31:39.264Z,13.78
2017-10-09T12:32:39.987Z,13.75
2017-10-09T12:33:40.707Z,13.87
2017-10-09T12:34:41.427Z,13.74
2017-10-09T12:35:42.148Z,13.77
2017-10-09T12:36:42.869Z,13.74
2017-10-09T12:37:43.595Z,13.78
2017-10-09T12:38:44.312Z,13.78
2017-10-09T12:39:45.044Z,13.63
2017-10-09T12:40:45.763Z,13.59
2017-10-09T12:41:46.486Z,13.67
2017-10-09T12:42:47.206Z,13.68
2017-10-09T12:43:47.926Z,13.75
2017-10-09T12:44:48.648Z,13.72
2017-10-09T12:45:49.366Z,13.74
2017-10-09T12:46:50.088Z,13.65
2017-10-09T12:47:50.807Z,13.67
2017-10-09T12:48:51.528Z,13.54
2017-10-09T12:49:52.248Z,13.65
2017-10-09T12:50:52.982Z,13.60
2017-10-09T12:51:53.706Z,13.47
2017-10-09T12:52:54.435Z,13.52
2017-10-09T12:53:55.156Z,13.54
2017-10-09T12:54:55.876Z,13.62
2017-10-09T12:55:56.594Z,13.59
2017-10-09T12:56:57.313Z,13.74
2017-10-09T12:57:58.033Z,13.78
2017-10-09T12:58:58.769Z,13.79
2017-10-09T12:59:59.490Z,13.97
2017-10-09T13:01:00.211Z,13.99
2017-10-09T13:02:00.935Z,14.07
2017-10-09T13:03:01.656Z,14.11
2017-10-09T13:04:02.378Z,14.15
2017-10-09T13:05:03.101Z,14.11
2017-10-09T13:06:03.822Z,14.28
2017-10-09T13:07:04.547Z,14.54
2017-10-09T13:08:05.270Z,14.81
2017-10-09T13:09:05.995Z,14.96
2017-10-09T13:10:06.716Z,15.06
2017-10-09T13:11:07.454Z,15.11
2017-10-09T13:12:08.177Z,15.17
2017-10-09T13:13:08.902Z,15.21
2017-10-09T13:14:09.626Z,15.00
2017-10-09T13:15:10.350Z,14.97
2017-10-09T13:16:11.073Z,14.96
2017-10-09T13:17:11.796Z,15.03